Aviation Digital Data Service (ADDS)

Output produced by METARs form (1856 UTC 24 April 2017)
found at http://aviationweather.gov/adds/metars/
 
KBPT 241732Z 2418/2518 VRB06KT P6SM SKC 
     FM242100 20007KT P6SM SKC 
     FM250100 VRB03KT P6SM SKC 
     FM251500 18016G22KT P6SM SKC